Time;durP1;ratioP1;P1;durP2;ratioP2;P2;SDS_P1;SDS_P2;PMS_P1;PMS_P2;Temp;Humidity;BMP_temperature;BMP_pressure;BME280_temperature;BME280_humidity;BME280_pressure;Samples;Min_cycle;Max_cycle;Signal;HPM_P1;HPM_P2
2021/12/18 00:01:54;;;;;;;4.95;4.07;;;;;;;19.76;54.17;98375.28;10406909;28;20450;-22
2021/12/18 00:06:55;;;;;;;5.95;4.38;;;;;;;19.74;54.61;98375.25;10406653;28;20029;-22
2021/12/18 00:11:57;;;;;;;5.70;4.38;;;;;;;19.74;54.74;98366.75;10406609;28;20033;-22
2021/12/18 00:16:57;;;;;;;5.72;4.88;;;;;;;19.71;54.35;98377.72;10404725;28;20112;-22
2021/12/18 00:21:58;;;;;;;5.80;4.10;;;;;;;19.73;54.68;98380.28;10405190;28;20037;-22
2021/12/18 00:26:58;;;;;;;6.68;5.43;;;;;;;19.69;54.81;98360.72;10407230;28;20041;-22
2021/12/18 00:31:59;;;;;;;5.50;4.30;;;;;;;19.69;55.04;98365.81;10406581;28;20030;-22
2021/12/18 00:36:59;;;;;;;6.20;4.32;;;;;;;19.68;54.97;98359.00;10404062;28;20037;-22
2021/12/18 00:42:07;;;;;;;7.07;4.57;;;;;;;19.73;54.23;98354.88;10406087;28;20087;-22
2021/12/18 00:47:08;;;;;;;5.90;4.03;;;;;;;19.74;54.25;98351.50;10406919;28;20120;-22
2021/12/18 00:52:08;;;;;;;6.67;3.63;;;;;;;19.74;54.48;98351.50;10400278;28;20051;-22
2021/12/18 00:57:09;;;;;;;4.22;3.72;;;;;;;19.70;54.47;98345.53;10405781;28;20524;-22
2021/12/18 01:02:09;;;;;;;5.82;3.90;;;;;;;19.73;54.56;98344.69;10404393;28;20039;-21
2021/12/18 01:07:10;;;;;;;5.55;4.18;;;;;;;19.71;54.56;98354.00;10404848;28;20095;-22
2021/12/18 01:12:10;;;;;;;4.00;3.50;;;;;;;19.65;54.70;98349.63;10406294;28;20029;-22
2021/12/18 01:27:31;;;;;;;4.78;4.10;;;;;;;19.68;54.58;98342.06;10398888;28;20300;-22
2021/12/18 01:32:32;;;;;;;4.97;4.00;;;;;;;19.73;54.14;98339.63;10405794;28;20403;-22
2021/12/18 01:37:32;;;;;;;5.23;3.97;;;;;;;19.76;53.89;98342.25;10404293;28;20037;-22
2021/12/18 01:43:21;;;;;;;5.35;3.45;;;;;;;19.72;54.28;98337.91;10404781;28;20353;-22
2021/12/18 01:53:03;;;;;;;4.07;3.47;;;;;;;19.66;54.32;98335.25;10402258;28;20036;-22
2021/12/18 01:58:06;;;;;;;5.03;3.85;;;;;;;19.60;54.39;98335.97;10402676;28;20087;-22
2021/12/18 02:03:07;;;;;;;4.35;3.80;;;;;;;19.68;54.16;98348.84;10405964;28;20510;-22
2021/12/18 02:08:07;;;;;;;5.57;3.92;;;;;;;19.67;54.49;98347.97;10411016;28;20033;-22
2021/12/18 02:13:23;;;;;;;5.40;3.38;;;;;;;19.66;54.22;98353.06;10411910;28;20040;-22
2021/12/18 02:23:43;;;;;;;3.83;3.28;;;;;;;19.74;53.92;98341.34;10409951;28;20492;-23
2021/12/18 02:28:47;;;;;;;4.88;3.50;;;;;;;19.72;53.81;98333.69;10408818;28;20541;-22
2021/12/18 02:33:47;;;;;;;5.82;3.35;;;;;;;19.70;53.91;98329.41;10406631;28;20632;-22
2021/12/18 02:43:50;;;;;;;3.95;3.10;;;;;;;19.66;53.94;98322.56;10407500;28;20033;-22
2021/12/18 02:48:52;;;;;;;4.07;3.40;;;;;;;19.67;54.00;98334.44;10407864;28;20030;-22
2021/12/18 02:53:54;;;;;;;4.15;3.10;;;;;;;19.66;53.99;98323.41;10411499;28;20033;-22
2021/12/18 02:59:04;;;;;;;5.22;3.28;;;;;;;19.67;53.96;98322.56;10409520;28;20111;-22
2021/12/18 03:04:16;;;;;;;3.90;3.50;;;;;;;19.65;53.58;98308.09;10409273;28;20385;-22
2021/12/18 03:25:20;;;;;;;3.72;3.30;;;;;;;19.70;53.60;98324.31;10409750;28;20157;-22
2021/12/18 03:30:21;;;;;;;3.42;2.92;;;;;;;19.67;53.54;98324.25;10408950;28;20048;-22
2021/12/18 03:35:22;;;;;;;3.58;3.00;;;;;;;19.67;53.52;98317.47;10408026;28;20038;-22
2021/12/18 03:40:24;;;;;;;3.80;3.10;;;;;;;19.69;53.57;98310.75;10409486;28;20037;-22
2021/12/18 03:45:25;;;;;;;4.20;3.20;;;;;;;19.68;53.45;98318.34;10407514;28;20071;-22
2021/12/18 03:50:25;;;;;;;3.13;2.83;;;;;;;19.67;53.44;98311.56;10407615;28;20030;-23
2021/12/18 03:55:26;;;;;;;2.90;2.60;;;;;;;19.70;53.44;98314.16;10408232;28;20288;-22
2021/12/18 04:00:27;;;;;;;3.33;2.80;;;;;;;19.72;53.35;98304.88;10405905;28;20063;-22
2021/12/18 04:05:27;;;;;;;4.25;2.60;;;;;;;19.74;53.19;98301.53;10406592;28;20045;-22
2021/12/18 04:10:27;;;;;;;2.67;2.40;;;;;;;19.72;53.26;98302.31;10408798;28;20041;-22
2021/12/18 04:15:28;;;;;;;4.43;3.03;;;;;;;19.69;53.34;98297.19;10405568;28;20124;-22
2021/12/18 04:20:29;;;;;;;3.00;2.70;;;;;;;19.69;53.32;98294.66;10402017;28;20499;-22
2021/12/18 04:25:29;;;;;;;2.75;2.45;;;;;;;19.68;53.39;98303.09;10406399;28;20072;-22
2021/12/18 04:30:30;;;;;;;2.70;2.38;;;;;;;19.66;53.46;98307.31;10406670;28;20384;-22
2021/12/18 04:35:30;;;;;;;2.70;2.50;;;;;;;19.66;53.17;98307.31;10404226;28;20048;-22
2021/12/18 04:40:30;;;;;;;2.57;2.17;;;;;;;19.62;53.44;98297.91;10407027;28;20120;-22
2021/12/18 04:45:31;;;;;;;3.40;2.90;;;;;;;19.70;53.30;98309.06;10404945;28;20037;-22
2021/12/18 04:50:31;;;;;;;3.20;2.60;;;;;;;19.71;53.06;98314.19;10404662;28;20037;-22
2021/12/18 04:55:32;;;;;;;2.50;2.30;;;;;;;19.68;53.09;98305.66;10406669;28;20034;-22
2021/12/18 05:00:40;;;;;;;3.47;2.42;;;;;;;19.69;53.11;98302.28;10396305;28;20033;-22
2021/12/18 05:05:41;;;;;;;2.45;2.22;;;;;;;19.71;53.48;98301.50;10403762;28;20112;-22
2021/12/18 05:10:41;;;;;;;3.22;2.50;;;;;;;19.74;52.77;98298.13;10400308;28;20041;-22
2021/12/18 05:15:41;;;;;;;4.10;2.40;;;;;;;19.75;53.01;98293.09;10402349;28;20033;-22
2021/12/18 05:20:42;;;;;;;3.27;2.83;;;;;;;19.69;53.04;98287.88;10395212;28;20087;-22
2021/12/18 05:25:42;;;;;;;2.50;1.90;;;;;;;19.72;53.11;98295.56;10403217;28;20039;-22
2021/12/18 05:30:42;;;;;;;2.73;2.40;;;;;;;19.79;52.91;98292.34;10404510;28;20287;-22
2021/12/18 05:35:43;;;;;;;3.23;2.50;;;;;;;19.78;52.78;98303.34;10402795;28;20502;-22
2021/12/18 05:40:43;;;;;;;2.45;2.25;;;;;;;19.81;52.82;98302.50;10412950;28;20555;-22
2021/12/18 05:45:44;;;;;;;2.92;2.35;;;;;;;19.76;53.60;98304.13;10408622;28;20523;-22
2021/12/18 05:50:46;;;;;;;2.70;2.23;;;;;;;19.79;52.98;98309.25;10411139;28;20048;-21
2021/12/18 05:55:46;;;;;;;2.70;2.10;;;;;;;19.77;53.10;98310.91;10413595;28;20037;-21
2021/12/18 06:00:47;;;;;;;3.30;2.57;;;;;;;19.76;52.99;98311.75;10408171;28;20036;-21
2021/12/18 06:05:47;;;;;;;3.80;2.00;;;;;;;19.71;53.54;98303.16;10412085;28;20033;-22
2021/12/18 06:10:47;;;;;;;3.50;2.70;;;;;;;19.67;53.66;98309.88;10413294;28;20087;-22
2021/12/18 06:15:48;;;;;;;4.83;2.77;;;;;;;19.67;53.85;98316.66;10411012;28;20041;-22
2021/12/18 06:20:48;;;;;;;2.87;2.57;;;;;;;19.72;53.56;98302.31;10407753;28;20044;-22
2021/12/18 06:25:48;;;;;;;3.40;2.07;;;;;;;19.77;53.43;98306.66;10411786;28;20064;-22
2021/12/18 06:30:49;;;;;;;2.65;2.30;;;;;;;19.81;53.34;98310.13;10409839;28;20038;-22
2021/12/18 06:35:50;;;;;;;3.58;2.65;;;;;;;19.80;53.62;98306.75;10409647;28;20033;-21
2021/12/18 06:40:50;;;;;;;2.33;2.13;;;;;;;19.82;53.38;98309.31;10411852;28;20075;-21
2021/12/18 06:45:50;;;;;;;2.80;2.33;;;;;;;19.77;54.05;98316.00;10408522;28;20029;-22
2021/12/18 06:50:51;;;;;;;3.23;2.00;;;;;;;19.79;53.41;98310.13;10408783;28;20029;-22
2021/12/18 06:55:51;;;;;;;3.10;2.50;;;;;;;19.82;53.75;98315.25;10412051;28;20029;-22
2021/12/18 07:00:53;;;;;;;2.57;2.23;;;;;;;19.85;53.59;98314.47;10412002;28;20778;-22
2021/12/18 07:05:53;;;;;;;2.45;1.95;;;;;;;19.86;53.26;98313.63;10409065;28;20503;-22
2021/12/18 07:10:54;;;;;;;4.07;2.90;;;;;;;19.81;53.31;98317.75;10407794;28;20033;-22
2021/12/18 07:15:54;;;;;;;2.30;1.80;;;;;;;19.82;52.51;98329.63;10406657;28;20051;-24
2021/12/18 07:20:55;;;;;;;3.00;2.20;;;;;;;19.80;52.62;98329.63;10397245;28;20075;-23
2021/12/18 07:25:55;;;;;;;3.70;2.20;;;;;;;19.80;52.42;98336.38;10403557;28;20041;-22
2021/12/18 07:30:56;;;;;;;2.77;2.07;;;;;;;19.79;52.36;98338.09;10403151;28;20117;-22
2021/12/18 07:35:56;;;;;;;1.90;1.70;;;;;;;19.79;51.79;98342.28;10401386;28;20782;-22
2021/12/18 07:40:56;;;;;;;2.60;2.20;;;;;;;19.76;52.19;98344.78;10403977;28;20033;-22
2021/12/18 07:45:57;;;;;;;3.03;2.30;;;;;;;19.77;52.28;98346.50;10409982;28;20381;-22
2021/12/18 07:50:57;;;;;;;2.80;2.23;;;;;;;19.73;52.66;98350.66;10407993;28;20037;-22
2021/12/18 07:55:58;;;;;;;4.38;2.25;;;;;;;19.77;51.64;98336.34;10407221;28;20307;-22
2021/12/18 08:00:58;;;;;;;2.55;2.00;;;;;;;19.81;52.21;98340.63;10407771;28;20047;-22
2021/12/18 08:05:59;;;;;;;3.30;2.17;;;;;;;19.81;51.07;98343.19;10405232;28;20033;-22
2021/12/18 08:10:59;;;;;;;8.60;2.70;;;;;;;19.75;51.15;98338.00;10401957;28;20048;-22
2021/12/18 08:15:59;;;;;;;3.80;2.93;;;;;;;19.80;51.07;98346.56;10408053;28;20606;-22
2021/12/18 08:21:00;;;;;;;3.27;2.97;;;;;;;19.77;50.34;98342.25;10400769;28;20393;-22
2021/12/18 08:26:00;;;;;;;5.10;3.43;;;;;;;19.74;50.41;98347.28;10407891;28;20037;-22
2021/12/18 08:31:01;;;;;;;5.60;3.30;;;;;;;19.72;49.42;98346.41;10406808;28;20295;-22
2021/12/18 08:36:02;;;;;;;4.78;2.88;;;;;;;19.72;49.71;98335.38;10403725;28;20288;-22
2021/12/18 08:41:03;;;;;;;5.55;2.70;;;;;;;19.69;50.48;98326.00;10407326;28;20036;-22
2021/12/18 08:46:03;;;;;;;9.30;3.67;;;;;;;19.72;49.72;98331.16;10403672;28;20457;-23
2021/12/18 08:51:04;;;;;;;4.90;2.47;;;;;;;19.67;51.07;98314.09;10405121;28;20045;-22
2021/12/18 08:56:04;;;;;;;4.18;2.85;;;;;;;19.66;51.40;98323.41;10406504;28;20047;-22
2021/12/18 09:01:05;;;;;;;26.85;4.50;;;;;;;19.60;52.20;98317.34;10405396;28;20443;-22
2021/12/18 09:06:05;;;;;;;15.50;4.13;;;;;;;19.70;52.05;98326.84;10404753;28;20041;-23
2021/12/18 09:11:06;;;;;;;19.90;4.40;;;;;;;19.72;52.81;98318.44;10406346;28;20029;-22
2021/12/18 09:16:07;;;;;;;17.60;4.83;;;;;;;19.72;53.48;98313.38;10403882;28;20047;-23
2021/12/18 09:21:08;;;;;;;12.50;4.10;;;;;;;19.77;53.43;98316.84;10397469;28;20040;-22
2021/12/18 09:26:09;;;;;;;13.73;3.75;;;;;;;19.39;48.58;98306.72;10404123;28;20053;-22
2021/12/18 09:31:09;;;;;;;8.80;3.00;;;;;;;19.40;48.74;98318.56;10402862;28;20491;-22
2021/12/18 09:36:10;;;;;;;8.63;3.60;;;;;;;19.56;51.08;98326.56;10403379;28;20308;-22
2021/12/18 09:41:10;;;;;;;11.53;3.30;;;;;;;19.62;52.27;98323.31;10405970;28;20522;-22
2021/12/18 09:46:13;;;;;;;14.20;3.40;;;;;;;19.63;52.95;98317.38;10404411;28;20296;-23
2021/12/18 09:51:24;;;;;;;11.88;3.35;;;;;;;19.63;53.29;98314.84;10404118;28;20303;-23
2021/12/18 09:56:25;;;;;;;5.53;3.03;;;;;;;19.62;53.66;98311.47;10404331;28;20041;-22
2021/12/18 10:01:26;;;;;;;7.95;3.03;;;;;;;19.63;53.56;98313.19;10405295;28;20040;-23
2021/12/18 10:06:44;;;;;;;7.30;2.95;;;;;;;19.69;54.00;98315.00;10403266;28;20126;-23
2021/12/18 10:11:51;;;;;;;6.28;3.08;;;;;;;19.75;53.49;98310.03;10404037;28;20025;-22
2021/12/18 10:16:51;;;;;;;;;;;;;;;19.79;53.50;98306.72;10404321;28;20035;-22
2021/12/18 10:22:01;;;;;;;9.00;3.53;;;;;;;19.69;53.88;98292.13;10399972;28;19917;-23
2021/12/18 10:27:22;;;;;;;11.77;5.10;;;;;;;19.68;54.19;98287.88;10406754;28;20490;-22
2021/12/18 10:32:24;;;;;;;10.63;5.38;;;;;;;19.67;54.21;98284.44;10412274;28;20037;-22
2021/12/18 10:37:32;;;;;;;12.90;8.88;;;;;;;19.65;54.40;98280.16;10409484;28;20036;-24
2021/12/18 10:42:42;;;;;;;13.43;7.45;;;;;;;19.67;54.25;98278.53;10406964;28;20026;-22
2021/12/18 10:48:03;;;;;;;16.88;8.40;;;;;;;19.67;54.19;98270.91;10411677;28;20043;-22
2021/12/18 10:53:17;;;;;;;14.82;8.32;;;;;;;19.66;54.01;98264.13;10409513;28;20377;-23
2021/12/18 10:58:20;;;;;;;13.25;9.00;;;;;;;19.62;54.50;98260.66;10409021;28;20070;-22
2021/12/18 11:03:37;;;;;;;14.02;9.57;;;;;;;19.59;54.57;98257.19;10409985;28;20455;-23
2021/12/18 11:09:06;;;;;;;16.67;9.38;;;;;;;19.62;53.96;98260.66;10405686;28;20045;-23
2021/12/18 11:14:13;;;;;;;13.02;8.75;;;;;;;19.63;54.32;98256.41;10407279;28;20073;-24
2021/12/18 11:19:19;;;;;;;12.45;7.82;;;;;;;18.41;47.45;98256.16;10404472;28;20145;-23
2021/12/18 11:24:21;;;;;;;9.97;6.90;;;;;;;18.51;48.90;98244.56;10410034;28;20475;-21
2021/12/18 11:29:27;;;;;;;11.93;8.30;;;;;;;19.17;49.26;98233.41;10403779;28;20041;-22
2021/12/18 11:34:27;;;;;;;14.43;9.02;;;;;;;19.29;49.69;98224.41;10407560;28;20060;-22
2021/12/18 11:39:30;;;;;;;14.85;8.90;;;;;;;18.91;43.88;98220.16;10408909;28;20405;-22
2021/12/18 11:44:37;;;;;;;20.27;10.23;;;;;;;19.08;48.14;98220.53;10408809;28;20034;-22
2021/12/18 11:49:43;;;;;;;10.82;8.25;;;;;;;19.27;49.53;98217.56;10404192;28;20026;-22
2021/12/18 11:54:48;;;;;;;11.93;7.93;;;;;;;19.41;49.84;98216.19;10407401;28;20538;-22
2021/12/18 11:59:49;;;;;;;12.65;8.25;;;;;;;19.36;50.57;98225.38;10408094;28;20037;-22
2021/12/18 12:05:04;;;;;;;9.43;8.33;;;;;;;19.35;50.63;98218.59;10408193;28;20037;-22
2021/12/18 12:10:46;;;;;;;16.52;9.35;;;;;;;19.41;48.97;98228.88;10409859;28;20029;-22
2021/12/18 12:15:51;;;;;;;13.32;8.23;;;;;;;19.36;49.33;98207.59;10403023;28;20126;-22
2021/12/18 12:20:53;;;;;;;18.05;9.32;;;;;;;19.47;51.59;98194.28;10401824;28;20025;-22
2021/12/18 12:25:53;;;;;;;16.10;8.70;;;;;;;19.52;52.06;98194.38;10408464;28;20179;-22
2021/12/18 12:31:00;;;;;;;18.27;8.98;;;;;;;19.53;52.24;98193.53;10407008;28;20500;-22
2021/12/18 12:36:15;;;;;;;14.25;8.55;;;;;;;19.58;52.59;98181.78;10405587;28;20072;-22
2021/12/18 12:41:25;;;;;;;15.20;8.80;;;;;;;19.54;52.96;98182.56;10407358;28;20042;-22
2021/12/18 12:46:26;;;;;;;14.88;8.40;;;;;;;19.56;53.08;98188.50;10400417;28;20064;-22
2021/12/18 12:51:59;;;;;;;16.67;9.00;;;;;;;19.63;53.26;98181.06;10396112;28;20029;-22
2021/12/18 12:57:21;;;;;;;12.23;8.10;;;;;;;19.61;53.14;98186.94;10399621;28;20025;-22
2021/12/18 13:02:21;;;;;;;17.10;8.15;;;;;;;19.61;52.94;98186.94;10395593;28;20034;-22
2021/12/18 13:07:22;;;;;;;14.57;8.07;;;;;;;19.64;53.22;98174.25;10400078;28;20451;-22
2021/12/18 13:12:22;;;;;;;11.07;7.53;;;;;;;19.68;53.24;98174.34;10401943;28;20034;-22
2021/12/18 13:17:26;;;;;;;13.82;7.68;;;;;;;19.68;53.28;98169.25;10405824;28;20039;-22
2021/12/18 13:22:32;;;;;;;13.18;8.02;;;;;;;19.72;53.23;98165.09;10401152;28;20033;-22
2021/12/18 13:27:34;;;;;;;13.90;7.45;;;;;;;19.80;53.17;98158.47;10404492;28;20439;-22
2021/12/18 13:32:35;;;;;;;13.50;8.27;;;;;;;19.76;53.49;98141.47;10406077;28;20519;-21
2021/12/18 13:37:36;;;;;;;16.80;7.72;;;;;;;19.89;53.40;98138.28;10400637;28;20040;-22
2021/12/18 13:42:36;;;;;;;13.77;7.82;;;;;;;19.86;52.77;98134.00;10405407;28;20427;-22
2021/12/18 13:47:47;;;;;;;11.73;6.93;;;;;;;19.93;52.40;98129.91;10401642;28;20044;-21
2021/12/18 13:53:02;;;;;;;23.98;11.82;;;;;;;18.99;45.29;98116.25;10403216;28;20076;-22
2021/12/18 13:58:17;;;;;;;14.30;8.15;;;;;;;19.45;48.79;98108.72;10404439;28;20037;-22
2021/12/18 14:03:19;;;;;;;11.82;7.57;;;;;;;19.69;50.07;98104.06;10412779;28;20037;-22
2021/12/18 14:08:21;;;;;;;17.17;7.70;;;;;;;19.72;50.14;98099.91;10403371;28;20038;-23
2021/12/18 14:13:21;;;;;;;11.68;7.57;;;;;;;19.51;49.51;98096.13;10406566;28;20303;-22
2021/12/18 14:18:33;;;;;;;12.60;7.38;;;;;;;19.51;50.21;98088.50;10403788;28;20503;-22
2021/12/18 14:23:37;;;;;;;11.07;7.10;;;;;;;19.60;51.62;98101.38;10402523;28;20049;-22
2021/12/18 14:28:37;;;;;;;13.40;5.82;;;;;;;19.60;52.19;98093.75;10405701;28;20029;-22
2021/12/18 14:34:10;;;;;;;13.47;6.70;;;;;;;19.62;52.48;98095.50;10408805;28;20033;-22
2021/12/18 14:39:43;;;;;;;11.63;6.75;;;;;;;19.65;52.76;98093.00;10409502;28;20049;-22
2021/12/18 14:45:00;;;;;;;14.60;6.75;;;;;;;19.64;52.67;98090.41;10397820;28;20044;-22
2021/12/18 14:50:08;;;;;;;15.77;7.20;;;;;;;19.70;52.58;98095.63;10407189;28;20037;-22
2021/12/18 14:55:09;;;;;;;13.32;7.20;;;;;;;19.74;53.07;98097.34;10415102;28;20496;-22
2021/12/18 15:00:18;;;;;;;15.65;8.43;;;;;;;19.68;53.32;98103.19;10412382;28;20102;-22
2021/12/18 15:05:18;;;;;;;11.30;7.63;;;;;;;19.66;53.41;98098.94;10406316;28;20034;-22
2021/12/18 15:10:19;;;;;;;13.80;7.10;;;;;;;19.66;53.40;98104.03;10408308;28;20033;-22
2021/12/18 15:15:19;;;;;;;10.37;6.93;;;;;;;19.66;53.50;98096.41;10412761;28;20039;-22
2021/12/18 15:20:19;;;;;;;19.53;7.33;;;;;;;19.66;53.39;98098.94;10405356;28;20295;-22
2021/12/18 15:25:20;;;;;;;12.30;7.20;;;;;;;19.64;53.68;98100.59;10408798;28;20709;-22
2021/12/18 15:30:20;;;;;;;9.40;6.37;;;;;;;19.69;53.31;98099.81;10408415;28;20500;-22
2021/12/18 15:35:21;;;;;;;14.30;7.57;;;;;;;19.52;53.68;98072.44;10408975;28;20288;-22
2021/12/18 15:40:21;;;;;;;19.60;8.07;;;;;;;19.67;53.68;98090.50;10410973;28;20476;-22
2021/12/18 15:45:22;;;;;;;13.70;7.43;;;;;;;19.69;53.84;98087.13;10410289;28;20033;-22
2021/12/18 15:50:23;;;;;;;18.38;9.50;;;;;;;19.72;54.25;98086.31;10409903;28;20034;-22
2021/12/18 15:55:26;;;;;;;18.90;7.65;;;;;;;19.86;53.47;98087.41;10408199;28;20033;-22
2021/12/18 16:00:30;;;;;;;29.25;7.80;;;;;;;19.73;52.18;98085.50;10404723;28;20072;-22
2021/12/18 16:05:31;;;;;;;17.95;7.78;;;;;;;18.87;47.99;98086.41;10406983;28;20076;-23
2021/12/18 16:10:31;;;;;;;18.70;7.80;;;;;;;19.29;51.45;98089.81;10408794;28;20082;-23
2021/12/18 16:15:32;;;;;;;19.50;6.33;;;;;;;19.43;52.76;98092.59;10402241;28;20086;-23
2021/12/18 16:20:34;;;;;;;19.40;6.63;;;;;;;19.42;52.88;98083.28;10403362;28;20116;-22
2021/12/18 16:25:34;;;;;;;11.65;6.95;;;;;;;19.56;52.91;98092.84;10406935;28;20319;-22
2021/12/18 16:30:35;;;;;;;17.88;7.18;;;;;;;19.59;53.05;98085.25;10406003;28;20045;-22
2021/12/18 16:35:36;;;;;;;18.20;6.67;;;;;;;19.63;53.10;98086.16;10405774;28;20034;-22
2021/12/18 16:40:39;;;;;;;16.42;6.80;;;;;;;19.63;53.20;98093.78;10407328;28;20980;-22
2021/12/18 16:45:40;;;;;;;12.55;7.15;;;;;;;19.62;53.40;98092.94;10406226;28;20439;-22
2021/12/18 16:50:40;;;;;;;13.32;6.18;;;;;;;19.62;53.48;98092.94;10404406;28;20068;-22
2021/12/18 16:55:41;;;;;;;14.63;6.27;;;;;;;19.62;53.55;98098.03;10406890;28;20033;-22
2021/12/18 17:00:42;;;;;;;13.73;6.68;;;;;;;19.60;53.73;98096.28;10404706;28;20408;-22
2021/12/18 17:05:45;;;;;;;10.63;6.22;;;;;;;19.56;53.61;98081.81;10405618;28;20033;-22
2021/12/18 17:10:46;;;;;;;11.80;6.18;;;;;;;19.61;53.78;98103.09;10405885;28;20120;-23
2021/12/18 17:15:46;;;;;;;12.45;6.18;;;;;;;19.62;53.00;98109.88;10399092;28;20022;-21
2021/12/18 17:20:47;;;;;;;12.10;5.55;;;;;;;19.65;53.54;98107.38;10401209;28;20041;-22
2021/12/18 17:25:47;;;;;;;12.77;5.53;;;;;;;19.67;53.51;98111.66;10405253;28;20040;-22
2021/12/18 17:30:47;;;;;;;10.77;5.43;;;;;;;19.68;53.54;98122.69;10404077;28;20311;-22
2021/12/18 17:35:49;;;;;;;11.47;5.50;;;;;;;19.66;53.58;98130.28;10395148;28;20890;-22
2021/12/18 17:40:49;;;;;;;12.48;5.75;;;;;;;19.71;53.18;98137.97;10404957;28;20033;-22
2021/12/18 17:45:50;;;;;;;6.40;4.93;;;;;;;19.72;53.95;98144.78;10402600;28;20650;-22
2021/12/18 17:50:50;;;;;;;7.07;4.97;;;;;;;19.73;53.52;98149.88;10402197;28;20033;-22
2021/12/18 17:55:51;;;;;;;10.90;4.95;;;;;;;19.70;53.43;98161.69;10402004;28;20284;-22
2021/12/18 18:00:51;;;;;;;10.20;5.60;;;;;;;19.73;53.28;98176.97;10396209;28;20040;-22
2021/12/18 18:05:51;;;;;;;10.43;5.40;;;;;;;19.69;53.59;98185.38;10403980;28;20642;-22
2021/12/18 18:10:53;;;;;;;10.70;7.00;;;;;;;19.67;53.41;98176.88;10401216;28;20088;-22
2021/12/18 18:15:55;;;;;;;10.57;7.05;;;;;;;19.68;53.53;98193.84;10402778;28;20296;-22
2021/12/18 18:20:57;;;;;;;28.15;14.15;;;;;;;19.68;50.56;98198.91;10401805;28;20071;-22
2021/12/18 18:25:59;;;;;;;14.75;9.68;;;;;;;19.57;50.58;98206.34;10402403;28;20511;-22
2021/12/18 18:31:02;;;;;;;13.73;8.65;;;;;;;19.65;51.70;98209.88;10397446;28;20064;-22
2021/12/18 18:36:07;;;;;;;18.27;10.23;;;;;;;19.69;51.76;98213.34;10396384;28;20507;-22
2021/12/18 18:41:08;;;;;;;14.90;9.75;;;;;;;19.52;50.05;98220.63;10404762;28;20041;-23
2021/12/18 18:46:16;;;;;;;19.42;13.85;;;;;;;19.58;50.99;98209.75;10403606;28;20474;-23
2021/12/18 18:51:19;;;;;;;20.92;14.57;;;;;;;19.68;51.46;98216.72;10405134;28;20053;-22
2021/12/18 18:56:20;;;;;;;20.10;13.52;;;;;;;19.77;51.29;98224.50;10412010;28;20128;-22
2021/12/18 19:01:21;;;;;;;25.73;15.68;;;;;;;19.67;52.00;98222.63;10404123;28;20041;-22
2021/12/18 19:06:22;;;;;;;23.42;14.88;;;;;;;19.68;52.32;98221.78;10401604;28;20060;-22
2021/12/18 19:11:22;;;;;;;21.65;14.02;;;;;;;19.54;52.17;98200.34;10405224;28;20025;-22
2021/12/18 19:16:24;;;;;;;25.10;12.95;;;;;;;19.64;52.42;98209.84;10400552;28;20033;-22
2021/12/18 19:21:25;;;;;;;21.83;13.38;;;;;;;19.63;52.43;98220.84;10404175;28;20033;-22
2021/12/18 19:26:27;;;;;;;21.88;12.68;;;;;;;19.64;52.72;98228.50;10408863;28;20025;-22
2021/12/18 19:31:27;;;;;;;19.73;12.77;;;;;;;19.67;52.61;98222.63;10404063;28;20142;-22
2021/12/18 19:36:27;;;;;;;17.77;11.33;;;;;;;19.66;52.76;98237.00;10403932;28;20042;-22
2021/12/18 19:41:28;;;;;;;16.10;11.70;;;;;;;19.66;52.20;98241.25;10406688;28;20030;-22
2021/12/18 19:46:28;;;;;;;17.57;10.70;;;;;;;19.61;52.56;98227.56;10398656;28;20044;-22
2021/12/18 19:51:30;;;;;;;20.80;10.43;;;;;;;19.70;52.94;98258.25;10399402;28;20044;-22
2021/12/18 19:56:30;;;;;;;15.52;10.18;;;;;;;19.68;52.78;98265.00;10402702;28;20033;-22
2021/12/18 20:01:32;;;;;;;20.88;11.68;;;;;;;19.72;52.66;98271.84;10408559;28;20413;-22
2021/12/18 20:06:33;;;;;;;20.17;12.23;;;;;;;19.71;53.32;98271.00;10407944;28;20116;-22
2021/12/18 20:11:33;;;;;;;21.52;12.60;;;;;;;19.69;53.58;98276.88;10409728;28;20569;-23
2021/12/18 20:16:33;;;;;;;25.77;12.50;;;;;;;19.70;53.37;98273.50;10393579;28;20052;-22
2021/12/18 20:21:34;;;;;;;33.33;13.90;;;;;;;19.73;53.43;98278.63;10401964;28;20044;-23
2021/12/18 20:26:34;;;;;;;23.90;12.30;;;;;;;19.77;53.16;98265.16;10400366;28;20049;-23
2021/12/18 20:31:35;;;;;;;22.45;13.05;;;;;;;19.75;53.18;98261.75;10398665;28;20029;-23
2021/12/18 20:36:35;;;;;;;23.63;11.85;;;;;;;19.74;53.10;98260.88;10398671;28;20044;-23
2021/12/18 20:41:40;;;;;;;20.85;10.50;;;;;;;19.74;53.18;98260.00;10400639;28;20057;-23
2021/12/18 20:46:41;;;;;;;21.02;10.68;;;;;;;19.70;53.14;98248.94;10398084;28;20041;-23
2021/12/18 20:51:41;;;;;;;18.52;11.20;;;;;;;19.74;53.21;98244.75;10397331;28;20029;-23
2021/12/18 20:56:43;;;;;;;23.23;10.80;;;;;;;19.76;53.10;98245.66;10398914;28;20183;-23
2021/12/18 21:01:44;;;;;;;21.38;11.25;;;;;;;19.77;53.09;98249.91;10395784;28;20339;-23
2021/12/18 21:06:47;;;;;;;18.88;11.02;;;;;;;19.73;53.26;98248.13;10398577;28;20480;-23
2021/12/18 21:11:47;;;;;;;20.27;11.05;;;;;;;19.77;53.17;98239.75;10399315;28;20049;-23
2021/12/18 21:16:55;;;;;;;17.83;10.52;;;;;;;19.73;53.55;98235.44;10399431;28;20116;-23
2021/12/18 21:21:56;;;;;;;23.23;12.07;;;;;;;19.74;53.49;98229.50;10401358;28;20041;-23
2021/12/18 21:26:57;;;;;;;20.48;11.15;;;;;;;19.77;53.36;98229.59;10395418;28;20033;-23
2021/12/18 21:31:57;;;;;;;18.35;11.63;;;;;;;19.71;53.62;98230.34;10398870;28;20415;-23
2021/12/18 21:36:58;;;;;;;16.37;10.23;;;;;;;19.78;52.93;98246.53;10397334;28;20286;-23
2021/12/18 21:41:58;;;;;;;19.37;10.97;;;;;;;19.72;53.33;98226.97;10396884;28;20298;-23
2021/12/18 21:46:59;;;;;;;19.27;10.25;;;;;;;19.78;53.14;98226.22;10397858;28;20037;-23
2021/12/18 21:52:02;;;;;;;18.55;10.77;;;;;;;19.79;52.96;98223.72;10398595;28;20040;-23
2021/12/18 21:57:03;;;;;;;17.58;9.63;;;;;;;19.77;52.99;98215.19;10396105;28;20037;-23
2021/12/18 22:02:05;;;;;;;13.13;10.10;;;;;;;19.79;52.80;98215.22;10396112;28;20637;-23
2021/12/18 22:07:06;;;;;;;15.20;9.95;;;;;;;19.78;52.98;98216.91;10399186;28;20041;-23
2021/12/18 22:12:07;;;;;;;18.83;10.18;;;;;;;19.79;52.89;98211.00;10399053;28;20065;-23
2021/12/18 22:17:07;;;;;;;15.60;10.02;;;;;;;19.76;52.92;98205.00;10398678;28;20475;-23
2021/12/18 22:22:13;;;;;;;18.63;10.48;;;;;;;19.76;52.99;98207.53;10400476;28;20029;-23
2021/12/18 22:27:14;;;;;;;14.90;10.45;;;;;;;19.78;52.87;98216.06;10405740;28;20386;-23
2021/12/18 22:32:15;;;;;;;16.58;9.40;;;;;;;19.80;53.04;98217.78;10405268;28;20037;-23
2021/12/18 22:37:16;;;;;;;19.75;10.48;;;;;;;19.76;53.02;98218.56;10399688;28;20137;-23
2021/12/18 22:42:18;;;;;;;15.52;9.32;;;;;;;19.76;52.78;98212.63;10403090;28;20025;-23
2021/12/18 22:47:18;;;;;;;19.52;9.40;;;;;;;19.78;52.80;98216.06;10403706;28;20037;-23
2021/12/18 22:52:18;;;;;;;13.90;8.83;;;;;;;19.73;53.17;98226.13;10400510;28;20523;-23
2021/12/18 22:57:19;;;;;;;13.68;8.90;;;;;;;19.73;53.19;98222.72;10401837;28;20183;-23
2021/12/18 23:02:19;;;;;;;15.67;9.00;;;;;;;19.67;53.35;98220.09;10408798;28;20029;-23
2021/12/18 23:07:20;;;;;;;17.27;9.20;;;;;;;19.73;53.27;98243.03;10409802;28;20643;-23
2021/12/18 23:12:23;;;;;;;14.98;8.20;;;;;;;19.75;53.25;98228.72;10407912;28;20048;-23
2021/12/18 23:22:24;;;;;;;12.80;8.47;;;;;;;19.76;53.41;98230.41;10403377;28;20087;-23
2021/12/18 23:27:25;;;;;;;12.80;8.32;;;;;;;19.76;53.42;98218.56;10409643;28;20291;-23
2021/12/18 23:32:25;;;;;;;17.23;8.18;;;;;;;19.77;53.53;98209.25;10408048;28;20025;-23
2021/12/18 23:37:28;;;;;;;12.53;8.53;;;;;;;19.75;53.74;98206.69;10404768;28;20068;-23
2021/12/18 23:42:29;;;;;;;10.07;7.07;;;;;;;19.75;53.53;98190.59;10406529;28;20379;-23
2021/12/18 23:47:29;;;;;;;11.23;8.10;;;;;;;19.78;53.42;98175.38;10409190;28;20499;-23
2021/12/18 23:52:30;;;;;;;11.77;7.68;;;;;;;19.78;53.67;98180.47;10407729;28;20545;-23
2021/12/18 23:57:30;;;;;;;14.23;8.13;;;;;;;19.81;53.24;98168.69;10407275;28;20614;-23
